createdAt,value
2023-09-25T00:01:44.920Z,4.53
2023-09-25T00:04:12.127Z,4.60
2023-09-25T00:06:39.323Z,4.30
2023-09-25T00:09:09.856Z,4.65
2023-09-25T00:11:36.921Z,4.60
2023-09-25T00:14:04.142Z,4.10
2023-09-25T00:16:31.365Z,4.40
2023-09-25T00:18:58.608Z,4.22
2023-09-25T00:21:25.883Z,4.90
2023-09-25T00:23:53.112Z,4.30
2023-09-25T00:26:20.215Z,4.82
2023-09-25T00:28:51.369Z,4.97
2023-09-25T00:31:18.635Z,4.80
2023-09-25T00:33:46.880Z,4.50
2023-09-25T00:36:14.067Z,4.70
2023-09-25T00:38:41.156Z,4.47
2023-09-25T00:41:08.316Z,4.72
2023-09-25T00:43:35.564Z,4.90
2023-09-25T00:46:03.451Z,5.10
2023-09-25T00:48:31.833Z,5.72
2023-09-25T00:51:03.376Z,4.88
2023-09-25T00:53:31.539Z,4.90
2023-09-25T00:55:58.907Z,5.20
2023-09-25T00:58:26.961Z,5.53
2023-09-25T01:00:56.226Z,5.03
2023-09-25T01:03:23.518Z,4.93
2023-09-25T01:05:50.880Z,4.72
2023-09-25T01:08:18.112Z,5.15
2023-09-25T01:10:45.881Z,5.80
2023-09-25T01:13:13.121Z,5.35
2023-09-25T01:15:40.598Z,5.15
2023-09-25T01:18:09.699Z,5.15
2023-09-25T01:20:37.976Z,6.05
2023-09-25T01:23:05.290Z,6.18
2023-09-25T01:25:32.565Z,6.18
2023-09-25T01:27:59.944Z,6.32
2023-09-25T01:30:27.487Z,6.18
2023-09-25T01:32:54.988Z,5.97
2023-09-25T01:35:27.613Z,6.57
2023-09-25T01:37:59.960Z,5.70
2023-09-25T01:40:28.242Z,6.63
2023-09-25T01:42:55.356Z,6.13
2023-09-25T01:45:22.542Z,6.05
2023-09-25T01:47:53.198Z,6.38
2023-09-25T01:50:26.193Z,5.50
2023-09-25T01:52:56.545Z,5.85
2023-09-25T01:57:50.877Z,6.75
2023-09-25T02:00:20.221Z,6.88
2023-09-25T02:02:48.559Z,6.72
2023-09-25T02:05:16.877Z,6.38
2023-09-25T02:07:44.160Z,6.07
2023-09-25T02:10:11.434Z,5.97
2023-09-25T02:12:39.076Z,6.28
2023-09-25T02:15:08.454Z,6.18
2023-09-25T02:17:36.614Z,6.78
2023-09-25T02:20:25.382Z,6.53
2023-09-25T02:22:52.844Z,6.57
2023-09-25T02:25:20.254Z,6.88
2023-09-25T02:27:48.016Z,6.00
2023-09-25T02:30:16.099Z,7.05
2023-09-25T02:32:43.944Z,6.80
2023-09-25T02:35:12.244Z,6.35
2023-09-25T02:37:42.414Z,7.72
2023-09-25T02:40:16.267Z,7.15
2023-09-25T02:42:47.635Z,6.57
2023-09-25T02:45:15.531Z,7.13
2023-09-25T02:47:43.044Z,7.45
2023-09-25T02:50:11.289Z,8.10
2023-09-25T02:52:38.571Z,7.05
2023-09-25T02:55:06.262Z,7.60
2023-09-25T02:57:33.603Z,7.30
2023-09-25T03:00:02.739Z,7.70
2023-09-25T03:02:30.403Z,7.63
2023-09-25T03:04:57.967Z,8.38
2023-09-25T03:07:25.139Z,8.50
2023-09-25T03:09:52.413Z,7.70
2023-09-25T03:12:20.525Z,9.07
2023-09-25T03:14:49.630Z,7.88
2023-09-25T03:17:16.760Z,8.00
2023-09-25T03:19:43.973Z,7.63
2023-09-25T03:22:11.084Z,7.97
2023-09-25T03:24:38.342Z,8.20
2023-09-25T03:27:05.448Z,8.85
2023-09-25T03:29:32.555Z,7.53
2023-09-25T03:31:59.789Z,8.80
2023-09-25T03:34:29.192Z,8.63
2023-09-25T03:36:56.276Z,9.25
2023-09-25T03:39:23.405Z,9.57
2023-09-25T03:41:50.576Z,8.38
2023-09-25T03:44:18.087Z,8.65
2023-09-25T03:46:45.187Z,9.95
2023-09-25T03:49:12.365Z,9.52
2023-09-25T03:51:39.506Z,10.95
2023-09-25T03:54:06.749Z,10.48
2023-09-25T03:56:33.948Z,11.65
2023-09-25T03:59:01.019Z,10.70
2023-09-25T04:01:28.410Z,11.13
2023-09-25T04:03:55.779Z,10.40
2023-09-25T04:06:23.064Z,11.40
2023-09-25T04:08:50.752Z,10.15
2023-09-25T04:11:19.913Z,11.27
2023-09-25T04:13:48.447Z,10.23
2023-09-25T04:16:15.730Z,10.50
2023-09-25T04:18:44.115Z,10.82
2023-09-25T04:21:19.043Z,10.98
2023-09-25T04:23:46.437Z,9.90
2023-09-25T04:26:13.615Z,9.55
2023-09-25T04:28:44.440Z,9.60
2023-09-25T04:31:12.849Z,9.73
2023-09-25T04:33:42.805Z,10.82
2023-09-25T04:36:11.993Z,8.73
2023-09-25T04:38:39.403Z,9.20
2023-09-25T04:41:07.214Z,9.68
2023-09-25T04:43:34.475Z,9.52
2023-09-25T04:46:02.443Z,10.45
2023-09-25T04:48:31.361Z,8.77
2023-09-25T04:50:59.002Z,10.52
2023-09-25T04:53:26.454Z,8.45
2023-09-25T04:55:54.038Z,8.20
2023-09-25T04:58:21.383Z,8.80
2023-09-25T05:00:49.984Z,6.80
2023-09-25T05:03:17.536Z,8.50
2023-09-25T05:05:46.199Z,8.85
2023-09-25T05:08:13.852Z,7.72
2023-09-25T05:10:41.142Z,8.38
2023-09-25T05:13:08.370Z,7.35
2023-09-25T05:15:36.252Z,8.45
2023-09-25T05:18:04.280Z,7.80
2023-09-25T05:20:31.539Z,8.70
2023-09-25T05:22:58.897Z,7.57
2023-09-25T05:25:26.261Z,9.27
2023-09-25T05:27:55.924Z,8.82
2023-09-25T05:30:23.630Z,9.30
2023-09-25T05:32:54.877Z,10.00
2023-09-25T05:35:22.613Z,9.75
2023-09-25T05:37:50.825Z,9.30
2023-09-25T05:40:19.092Z,10.80
2023-09-25T05:42:48.119Z,13.50
2023-09-25T05:45:17.565Z,12.13
2023-09-25T05:47:46.493Z,11.93
2023-09-25T05:50:14.403Z,10.15
2023-09-25T05:52:41.866Z,9.57
2023-09-25T05:55:09.952Z,10.35
2023-09-25T05:57:37.474Z,8.98
2023-09-25T06:00:24.558Z,11.50
2023-09-25T06:02:52.250Z,10.10
2023-09-25T06:05:19.627Z,10.10
2023-09-25T06:07:46.773Z,10.23
2023-09-25T06:10:13.989Z,10.98
2023-09-25T06:12:41.370Z,9.35
2023-09-25T06:15:12.199Z,9.70
2023-09-25T06:17:41.264Z,8.75
2023-09-25T06:20:17.587Z,9.20
2023-09-25T06:22:46.128Z,10.25
2023-09-25T06:25:19.377Z,10.23
2023-09-25T06:27:47.985Z,10.65
2023-09-25T06:30:16.263Z,12.27
2023-09-25T06:32:43.543Z,12.98
2023-09-25T06:35:10.782Z,12.02
2023-09-25T06:37:39.614Z,12.85
2023-09-25T06:40:11.697Z,13.27
2023-09-25T06:42:40.558Z,11.23
2023-09-25T06:45:10.816Z,10.82
2023-09-25T06:47:38.904Z,10.50
2023-09-25T06:50:07.074Z,10.52
2023-09-25T06:52:34.218Z,9.98
2023-09-25T06:55:01.331Z,10.27
2023-09-25T06:57:28.532Z,9.70
2023-09-25T06:59:55.733Z,8.27
2023-09-25T07:02:23.007Z,7.82
2023-09-25T07:04:50.698Z,8.43
2023-09-25T07:07:18.119Z,7.13
2023-09-25T07:09:45.489Z,8.27
2023-09-25T07:12:15.881Z,7.15
2023-09-25T07:17:17.807Z,6.20
2023-09-25T07:19:44.993Z,7.78
2023-09-25T07:22:12.224Z,5.82
2023-09-25T07:24:39.879Z,6.35
2023-09-25T07:27:07.056Z,5.47
2023-09-25T07:29:42.052Z,5.70
2023-09-25T07:32:10.123Z,5.20
2023-09-25T07:34:38.162Z,4.82
2023-09-25T07:37:06.769Z,4.88
2023-09-25T07:39:36.356Z,3.80
2023-09-25T07:42:03.682Z,3.70
2023-09-25T07:44:34.797Z,4.28
2023-09-25T07:47:08.012Z,3.75
2023-09-25T07:49:41.819Z,3.60
2023-09-25T07:52:19.779Z,3.08
2023-09-25T07:54:50.067Z,3.55
2023-09-25T07:57:20.693Z,3.10
2023-09-25T07:59:49.054Z,3.15
2023-09-25T08:02:21.360Z,2.75
2023-09-25T08:04:51.986Z,2.80
2023-09-25T08:07:20.368Z,2.45
2023-09-25T08:09:47.881Z,2.47
2023-09-25T08:12:15.191Z,2.78
2023-09-25T08:14:42.449Z,2.30
2023-09-25T08:17:10.166Z,2.50
2023-09-25T08:19:37.660Z,2.35
2023-09-25T08:22:05.252Z,2.42
2023-09-25T08:24:32.524Z,2.50
2023-09-25T08:27:01.295Z,2.13
2023-09-25T08:29:28.475Z,2.38
2023-09-25T08:31:55.717Z,2.75
2023-09-25T08:34:23.239Z,2.85
2023-09-25T08:36:50.572Z,2.65
2023-09-25T08:39:18.936Z,2.75
2023-09-25T08:41:47.560Z,3.33
2023-09-25T08:44:17.475Z,2.92
2023-09-25T08:46:45.427Z,3.03
2023-09-25T08:49:13.629Z,2.95
2023-09-25T08:51:41.266Z,3.50
2023-09-25T08:54:09.756Z,2.92
2023-09-25T08:56:38.259Z,3.60
2023-09-25T08:59:05.700Z,3.75
2023-09-25T09:01:33.559Z,3.17
2023-09-25T09:04:00.823Z,3.42
2023-09-25T09:06:28.335Z,3.25
2023-09-25T09:08:57.869Z,3.00
2023-09-25T09:11:25.053Z,3.13
2023-09-25T09:13:52.262Z,2.65
2023-09-25T09:16:21.153Z,3.10
2023-09-25T09:18:48.912Z,2.70
2023-09-25T09:21:28.646Z,2.88
2023-09-25T09:23:58.492Z,2.80
2023-09-25T09:26:26.928Z,2.65
2023-09-25T09:28:57.511Z,2.33
2023-09-25T09:31:24.593Z,2.00
2023-09-25T09:33:56.844Z,2.45
2023-09-25T09:36:24.990Z,2.22
2023-09-25T09:38:53.729Z,2.13
2023-09-25T09:41:21.158Z,1.85
2023-09-25T09:43:49.028Z,2.15
2023-09-25T09:46:17.690Z,2.40
2023-09-25T09:48:48.116Z,2.33
2023-09-25T09:51:19.074Z,2.33
2023-09-25T09:53:46.743Z,2.30
2023-09-25T09:56:15.988Z,2.38
2023-09-25T09:58:43.271Z,2.30
2023-09-25T10:01:11.088Z,2.13
2023-09-25T10:03:38.744Z,2.10
2023-09-25T10:06:06.785Z,2.05
2023-09-25T10:08:33.930Z,2.40
2023-09-25T10:11:21.522Z,2.03
2023-09-25T10:13:48.747Z,2.35
2023-09-25T10:16:17.256Z,2.28
2023-09-25T10:18:44.705Z,2.20
2023-09-25T10:21:16.224Z,2.40
2023-09-25T10:23:55.754Z,2.30
2023-09-25T10:26:25.934Z,2.10
2023-09-25T10:29:16.499Z,1.95
2023-09-25T10:31:48.401Z,1.90
2023-09-25T10:34:15.674Z,2.15
2023-09-25T10:36:45.452Z,2.25
2023-09-25T10:39:17.042Z,1.98
2023-09-25T10:41:47.189Z,2.08
2023-09-25T10:44:15.426Z,1.83
2023-09-25T10:46:42.971Z,1.90
2023-09-25T10:49:10.500Z,2.00
2023-09-25T10:51:37.703Z,2.00
2023-09-25T10:54:05.182Z,2.08
2023-09-25T10:56:34.397Z,1.90
2023-09-25T10:59:02.548Z,2.10
2023-09-25T11:01:31.366Z,1.92
2023-09-25T11:04:02.679Z,2.00
2023-09-25T11:06:30.639Z,2.20
2023-09-25T11:09:08.274Z,2.05
2023-09-25T11:11:35.642Z,2.00
2023-09-25T11:14:03.997Z,2.30
2023-09-25T11:16:31.348Z,1.95
2023-09-25T11:19:12.220Z,1.95
2023-09-25T11:21:41.383Z,1.95
2023-09-25T11:24:09.973Z,1.83
2023-09-25T11:26:38.494Z,2.45
2023-09-25T11:29:09.436Z,1.98
2023-09-25T11:31:54.383Z,2.05
2023-09-25T11:34:27.798Z,2.17
2023-09-25T11:36:55.148Z,2.00
2023-09-25T11:39:22.641Z,2.03
2023-09-25T11:41:49.911Z,2.10
2023-09-25T11:44:17.079Z,2.00
2023-09-25T11:46:44.569Z,2.40
2023-09-25T11:49:13.771Z,2.00
2023-09-25T11:51:41.563Z,2.00
2023-09-25T11:54:09.230Z,2.38
2023-09-25T11:56:36.568Z,2.03
2023-09-25T11:59:03.781Z,1.90
2023-09-25T12:01:31.045Z,1.90
2023-09-25T12:03:58.835Z,1.90
2023-09-25T12:06:27.953Z,1.80
2023-09-25T12:08:56.471Z,2.10
2023-09-25T12:11:23.907Z,2.40
2023-09-25T12:13:51.710Z,2.00
2023-09-25T12:16:19.982Z,2.08
2023-09-25T12:18:48.113Z,1.95
2023-09-25T12:21:15.645Z,1.60
2023-09-25T12:23:44.227Z,1.92
2023-09-25T12:26:11.521Z,1.70
2023-09-25T12:28:39.238Z,1.70
2023-09-25T12:31:06.450Z,2.13
2023-09-25T12:33:33.744Z,1.90
2023-09-25T12:36:01.109Z,1.75
2023-09-25T12:38:28.806Z,1.90
2023-09-25T12:40:57.633Z,1.70
2023-09-25T12:43:25.422Z,1.80
2023-09-25T12:45:53.122Z,1.90
2023-09-25T12:48:21.299Z,1.52
2023-09-25T12:50:50.428Z,1.50
2023-09-25T12:53:20.325Z,1.55
2023-09-25T12:55:47.598Z,1.50
2023-09-25T12:58:14.807Z,1.70
2023-09-25T13:00:42.164Z,1.75
2023-09-25T13:03:10.052Z,1.58
2023-09-25T13:05:37.698Z,1.60
2023-09-25T13:08:05.329Z,1.83
2023-09-25T13:10:32.900Z,1.40
2023-09-25T13:13:00.296Z,1.38
2023-09-25T13:15:27.782Z,1.80
2023-09-25T13:17:55.090Z,1.23
2023-09-25T13:20:22.552Z,1.50
2023-09-25T13:22:49.901Z,1.60
2023-09-25T13:25:17.264Z,1.65
2023-09-25T13:27:51.122Z,1.70
2023-09-25T13:30:20.674Z,1.60
2023-09-25T13:32:48.231Z,2.30
2023-09-25T13:35:16.021Z,1.92
2023-09-25T13:37:44.162Z,1.92
2023-09-25T13:40:22.516Z,1.90
2023-09-25T13:42:49.990Z,1.40
2023-09-25T13:45:17.163Z,1.80
2023-09-25T13:47:45.220Z,1.50
2023-09-25T13:50:14.019Z,1.70
2023-09-25T13:52:42.351Z,1.83
2023-09-25T13:55:11.881Z,1.50
2023-09-25T13:57:40.228Z,1.40
2023-09-25T14:00:09.901Z,1.63
2023-09-25T14:02:42.141Z,1.40
2023-09-25T14:05:10.238Z,1.48
2023-09-25T14:07:37.475Z,1.45
2023-09-25T14:10:05.272Z,1.60
2023-09-25T14:12:32.729Z,1.70
2023-09-25T14:15:00.047Z,1.60
2023-09-25T14:17:27.337Z,1.40
2023-09-25T14:19:54.520Z,1.38
2023-09-25T14:22:21.830Z,1.77
2023-09-25T14:24:49.047Z,1.30
2023-09-25T14:27:18.498Z,1.60
2023-09-25T14:29:45.597Z,1.57
2023-09-25T14:32:13.017Z,1.58
2023-09-25T14:34:40.208Z,1.38
2023-09-25T14:37:07.449Z,1.40
2023-09-25T14:39:34.721Z,1.60
2023-09-25T14:42:01.984Z,1.52
2023-09-25T14:44:29.159Z,1.75
2023-09-25T14:46:56.670Z,1.52
2023-09-25T14:49:24.140Z,1.58
2023-09-25T14:51:54.235Z,1.45
2023-09-25T14:54:21.527Z,1.73
2023-09-25T14:56:48.724Z,1.67
2023-09-25T14:59:15.958Z,1.50
2023-09-25T15:01:43.473Z,1.60
2023-09-25T15:04:10.812Z,1.48
2023-09-25T15:06:38.068Z,1.58
2023-09-25T15:09:05.359Z,1.95
2023-09-25T15:11:32.536Z,1.77
2023-09-25T15:14:00.340Z,1.92
2023-09-25T15:16:27.705Z,1.60
2023-09-25T15:18:55.001Z,1.40
2023-09-25T15:21:22.158Z,1.60
2023-09-25T15:23:49.624Z,1.80
2023-09-25T15:26:17.028Z,1.73
2023-09-25T15:28:44.341Z,1.45
2023-09-25T15:31:11.865Z,1.60
2023-09-25T15:33:39.232Z,1.40
2023-09-25T15:36:06.591Z,1.45
2023-09-25T15:38:33.834Z,1.63
2023-09-25T15:41:01.118Z,1.50
2023-09-25T15:43:28.196Z,1.45
2023-09-25T15:45:55.568Z,1.40
2023-09-25T15:48:22.841Z,1.30
2023-09-25T15:50:52.150Z,1.60
2023-09-25T15:53:19.379Z,1.60
2023-09-25T15:55:46.479Z,1.70
2023-09-25T15:58:13.773Z,1.55
2023-09-25T16:00:41.256Z,1.20
2023-09-25T16:03:08.575Z,1.40
2023-09-25T16:05:36.013Z,1.50
2023-09-25T16:08:03.245Z,1.60
2023-09-25T16:10:30.482Z,1.48
2023-09-25T16:12:57.690Z,1.60
2023-09-25T16:15:24.816Z,1.40
2023-09-25T16:17:52.010Z,1.98
2023-09-25T16:20:19.990Z,1.85
2023-09-25T16:22:47.061Z,2.55
2023-09-25T16:25:14.429Z,2.28
2023-09-25T16:27:42.082Z,3.55
2023-09-25T16:30:09.552Z,5.03
2023-09-25T16:32:36.714Z,3.33
2023-09-25T16:35:04.050Z,2.40
2023-09-25T16:37:31.199Z,1.77
2023-09-25T16:39:58.497Z,2.00
2023-09-25T16:42:25.722Z,1.90
2023-09-25T16:44:52.849Z,2.00
2023-09-25T16:47:22.093Z,1.73
2023-09-25T16:49:50.557Z,1.90
2023-09-25T16:52:17.651Z,1.90
2023-09-25T16:54:44.957Z,1.80
2023-09-25T16:57:12.064Z,2.10
2023-09-25T16:59:39.326Z,2.28
2023-09-25T17:02:07.327Z,2.58
2023-09-25T17:04:34.736Z,1.95
2023-09-25T17:07:01.935Z,2.10
2023-09-25T17:09:29.190Z,2.40
2023-09-25T17:11:56.339Z,2.70
2023-09-25T17:14:23.497Z,2.40
2023-09-25T17:16:50.809Z,2.50
2023-09-25T17:19:18.007Z,3.33
2023-09-25T17:21:45.209Z,3.92
2023-09-25T17:24:12.482Z,5.53
2023-09-25T17:26:39.589Z,7.93
2023-09-25T17:29:06.743Z,6.90
2023-09-25T17:31:34.015Z,5.07
2023-09-25T17:34:01.291Z,4.38
2023-09-25T17:36:28.406Z,3.78
2023-09-25T17:38:55.718Z,3.72
2023-09-25T17:41:22.957Z,4.18
2023-09-25T17:43:50.249Z,3.53
2023-09-25T17:46:17.687Z,3.70
2023-09-25T17:48:45.114Z,3.65
2023-09-25T17:51:12.764Z,3.40
2023-09-25T17:53:39.994Z,3.35
2023-09-25T17:56:09.867Z,3.17
2023-09-25T17:58:37.169Z,2.80
2023-09-25T18:01:04.580Z,2.85
2023-09-25T18:03:32.046Z,2.92
2023-09-25T18:05:59.398Z,3.10
2023-09-25T18:08:26.564Z,3.22
2023-09-25T18:10:53.949Z,3.13
2023-09-25T18:13:22.275Z,3.35
2023-09-25T18:15:50.633Z,3.30
2023-09-25T18:18:18.218Z,3.47
2023-09-25T18:20:45.687Z,3.30
2023-09-25T18:23:13.267Z,3.13
2023-09-25T18:25:42.408Z,3.50
2023-09-25T18:28:09.773Z,3.08
2023-09-25T18:30:37.881Z,3.60
2023-09-25T18:33:10.681Z,3.08
2023-09-25T18:35:38.577Z,3.50
2023-09-25T18:38:05.680Z,3.85
2023-09-25T18:40:35.957Z,3.58
2023-09-25T18:43:04.518Z,3.53
2023-09-25T18:45:32.338Z,3.55
2023-09-25T18:47:59.969Z,3.38
2023-09-25T18:50:27.155Z,2.90
2023-09-25T18:52:54.312Z,3.53
2023-09-25T18:55:21.596Z,3.30
2023-09-25T18:57:48.736Z,3.28
2023-09-25T19:00:16.214Z,3.58
2023-09-25T19:02:43.407Z,3.05
2023-09-25T19:05:10.730Z,2.90
2023-09-25T19:07:38.102Z,2.72
2023-09-25T19:10:06.148Z,2.60
2023-09-25T19:12:33.520Z,2.88
2023-09-25T19:15:00.979Z,3.20
2023-09-25T19:17:28.088Z,2.63
2023-09-25T19:19:55.201Z,2.90
2023-09-25T19:22:22.350Z,2.50
2023-09-25T19:24:49.519Z,2.50
2023-09-25T19:27:16.670Z,3.00
2023-09-25T19:29:43.825Z,2.63
2023-09-25T19:32:11.295Z,2.75
2023-09-25T19:34:38.634Z,3.22
2023-09-25T19:37:06.018Z,3.42
2023-09-25T19:39:33.269Z,3.30
2023-09-25T19:42:00.460Z,3.92
2023-09-25T19:44:27.757Z,3.60
2023-09-25T19:46:54.963Z,3.67
2023-09-25T19:49:22.340Z,3.40
2023-09-25T19:51:50.592Z,3.50
2023-09-25T19:54:18.116Z,3.30
2023-09-25T19:56:45.261Z,3.38
2023-09-25T19:59:12.489Z,3.50
2023-09-25T20:01:41.972Z,3.42
2023-09-25T20:04:10.270Z,3.20
2023-09-25T20:06:37.831Z,3.00
2023-09-25T20:09:05.188Z,3.00
2023-09-25T20:11:32.288Z,3.30
2023-09-25T20:13:59.508Z,3.40
2023-09-25T20:16:26.979Z,3.13
2023-09-25T20:18:54.397Z,3.10
2023-09-25T20:21:23.243Z,3.03
2023-09-25T20:23:53.198Z,2.80
2023-09-25T20:26:20.306Z,3.10
2023-09-25T20:28:47.508Z,3.22
2023-09-25T20:31:14.792Z,3.35
2023-09-25T20:33:42.092Z,2.95
2023-09-25T20:36:10.113Z,2.80
2023-09-25T20:38:37.804Z,2.90
2023-09-25T20:41:05.029Z,2.90
2023-09-25T20:43:32.176Z,3.20
2023-09-25T20:45:59.947Z,2.90
2023-09-25T20:48:27.093Z,2.85
2023-09-25T20:50:54.205Z,3.30
2023-09-25T20:53:21.493Z,2.67
2023-09-25T20:55:48.978Z,2.95
2023-09-25T20:58:16.405Z,3.00
2023-09-25T21:00:43.729Z,3.00
2023-09-25T21:03:11.207Z,2.63
2023-09-25T21:05:38.470Z,2.97
2023-09-25T21:08:05.898Z,3.00
2023-09-25T21:10:33.086Z,2.83
2023-09-25T21:13:00.377Z,2.80
2023-09-25T21:15:27.549Z,2.67
2023-09-25T21:17:54.739Z,2.60
2023-09-25T21:20:21.949Z,2.78
2023-09-25T21:22:49.078Z,2.47
2023-09-25T21:25:16.389Z,2.55
2023-09-25T21:27:43.894Z,2.70
2023-09-25T21:30:12.792Z,2.63
2023-09-25T21:32:39.837Z,2.90
2023-09-25T21:35:07.320Z,2.63
2023-09-25T21:37:34.601Z,2.80
2023-09-25T21:40:02.069Z,2.17
2023-09-25T21:42:29.261Z,2.60
2023-09-25T21:44:57.147Z,2.35
2023-09-25T21:47:24.370Z,3.17
2023-09-25T21:49:51.613Z,2.78
2023-09-25T21:52:18.960Z,2.70
2023-09-25T21:54:46.342Z,2.67
2023-09-25T21:57:13.648Z,2.92
2023-09-25T21:59:40.736Z,2.75
2023-09-25T22:02:08.629Z,3.25
2023-09-25T22:04:35.810Z,3.17
2023-09-25T22:07:03.419Z,3.08
2023-09-25T22:09:31.125Z,2.78
2023-09-25T22:11:58.530Z,2.75
2023-09-25T22:14:25.805Z,2.97
2023-09-25T22:16:52.942Z,3.40
2023-09-25T22:19:20.185Z,2.83
2023-09-25T22:21:48.554Z,3.30
2023-09-25T22:24:16.494Z,3.00
2023-09-25T22:26:44.097Z,3.30
2023-09-25T22:29:11.347Z,2.80
2023-09-25T22:31:40.822Z,2.90
2023-09-25T22:34:09.063Z,3.20
2023-09-25T22:36:36.235Z,3.30
2023-09-25T22:39:04.061Z,3.00
2023-09-25T22:41:31.222Z,3.17
2023-09-25T22:43:58.624Z,3.53
2023-09-25T22:46:25.939Z,3.38
2023-09-25T22:48:53.155Z,3.40
2023-09-25T22:51:20.458Z,3.53
2023-09-25T22:53:47.867Z,3.17
2023-09-25T22:56:15.001Z,3.70
2023-09-25T22:58:42.141Z,3.58
2023-09-25T23:01:10.122Z,3.20
2023-09-25T23:03:37.442Z,3.13
2023-09-25T23:06:05.667Z,3.55
2023-09-25T23:08:32.901Z,3.85
2023-09-25T23:11:00.092Z,3.30
2023-09-25T23:13:27.332Z,3.75
2023-09-25T23:15:54.634Z,4.15
2023-09-25T23:18:21.829Z,3.67
2023-09-25T23:20:52.754Z,3.60
2023-09-25T23:23:19.953Z,3.70
2023-09-25T23:25:47.102Z,3.88
2023-09-25T23:28:14.725Z,3.97
2023-09-25T23:30:42.007Z,4.03
2023-09-25T23:33:09.322Z,3.88
2023-09-25T23:35:36.611Z,4.00
2023-09-25T23:38:04.245Z,3.85
2023-09-25T23:40:32.126Z,3.75
2023-09-25T23:42:59.667Z,3.45
2023-09-25T23:45:26.864Z,3.88
2023-09-25T23:47:54.438Z,3.97
2023-09-25T23:50:21.817Z,3.63
2023-09-25T23:52:50.114Z,4.07
2023-09-25T23:55:17.447Z,4.03
2023-09-25T23:57:44.689Z,3.72
